Time;durP1;ratioP1;P1;durP2;ratioP2;P2;SDS_P1;SDS_P2;PMS_P1;PMS_P2;Temp;Humidity;BMP_temperature;BMP_pressure;BME280_temperature;BME280_humidity;BME280_pressure;Samples;Min_cycle;Max_cycle;Signal;HPM_P1;HPM_P2
2023/05/23 00:02:07;;;;;;;;;24.00;20.60;;;;;-149.35;100.00;64108.03;5034396;28;45343;-62
2023/05/23 00:04:34;;;;;;;;;29.80;27.60;;;;;-149.35;100.00;64108.03;5034512;28;45389;-61
2023/05/23 00:07:00;;;;;;;;;33.20;28.80;;;;;-149.35;100.00;64108.03;5033327;28;45478;-62
2023/05/23 00:09:25;;;;;;;;;26.50;25.50;;;;;-149.35;100.00;64108.03;5033096;28;46415;-61
2023/05/23 00:11:51;;;;;;;;;34.50;27.00;;;;;-149.35;100.00;64108.03;5034282;28;45384;-62
2023/05/23 00:14:17;;;;;;;;;32.25;27.50;;;;;-149.35;100.00;64108.03;5016380;28;45359;-62
2023/05/23 00:16:43;;;;;;;;;35.75;31.25;;;;;-149.35;100.00;64108.03;5034498;28;45330;-62
2023/05/23 00:19:15;;;;;;;;;37.40;30.00;;;;;-149.35;100.00;64108.03;5034117;28;45358;-63
2023/05/23 00:21:42;;;;;;;;;31.40;27.40;;;;;-149.35;100.00;64108.03;5033881;28;45365;-62
2023/05/23 00:24:08;;;;;;;;;33.40;28.20;;;;;-149.35;100.00;64108.03;5016625;28;45375;-61
2023/05/23 00:26:34;;;;;;;;;28.20;24.00;;;;;-149.35;100.00;64108.03;5034370;28;45323;-61
2023/05/23 00:28:59;;;;;;;;;28.50;24.50;;;;;-149.35;100.00;64108.03;5034074;28;46320;-62
2023/05/23 00:31:25;;;;;;;;;27.50;27.00;;;;;-149.35;100.00;64108.03;5033815;28;45369;-61
2023/05/23 00:33:50;;;;;;;;;29.00;25.50;;;;;-149.35;100.00;64108.03;5012434;28;45488;-62
2023/05/23 00:36:17;;;;;;;;;25.50;24.00;;;;;-149.35;100.00;64108.03;5029083;28;45529;-62
2023/05/23 00:38:44;;;;;;;;;30.00;26.80;;;;;-149.35;100.00;64108.03;5013546;28;45537;-63
2023/05/23 00:41:10;;;;;;;;;26.40;25.60;;;;;-149.35;100.00;64108.03;5012497;28;45417;-62
2023/05/23 00:43:36;;;;;;;;;25.50;23.25;;;;;-149.35;100.00;64108.03;5013525;28;45150;-61
2023/05/23 00:46:01;;;;;;;;;26.00;24.75;;;;;-149.35;100.00;64108.03;5028850;28;45559;-62
2023/05/23 00:48:27;;;;;;;;;20.25;19.00;;;;;-149.35;100.00;64108.03;5012087;28;47601;-62
2023/05/23 00:50:53;;;;;;;;;28.75;22.00;;;;;-149.35;100.00;64108.03;5012061;28;45318;-62
2023/05/23 00:53:18;;;;;;;;;25.60;22.60;;;;;-149.35;100.00;64108.03;5012452;28;45363;-61
2023/05/23 00:55:44;;;;;;;;;26.25;23.75;;;;;-149.35;100.00;64108.03;5012461;28;45162;-62
2023/05/23 00:58:10;;;;;;;;;24.75;23.50;;;;;-149.35;100.00;64108.03;5011925;28;46394;-62
2023/05/23 01:00:37;;;;;;;;;21.25;20.25;;;;;-149.35;100.00;64108.03;5012303;28;45433;-61
2023/05/23 01:03:03;;;;;;;;;25.80;22.80;;;;;-149.35;100.00;64108.03;5028674;28;45478;-62
2023/05/23 01:05:29;;;;;;;;;24.80;20.60;;;;;-149.35;100.00;64108.03;5028754;28;45536;-61
2023/05/23 01:07:54;;;;;;;;;19.25;18.75;;;;;-149.35;100.00;64108.03;5013234;28;45615;-62
2023/05/23 01:10:28;;;;;;;;;24.25;22.25;;;;;-149.35;100.00;64108.03;5028673;28;45411;-62
2023/05/23 01:13:01;;;;;;;;;26.20;23.80;;;;;-149.35;100.00;64108.03;5031319;28;45394;-61
2023/05/23 01:16:01;;;;;;;;;23.80;22.00;;;;;-149.35;100.00;64108.03;5032117;28;45367;-62
2023/05/23 01:18:37;;;;;;;;;27.00;23.60;;;;;-149.35;100.00;64108.03;5028109;28;47203;-63
2023/05/23 01:21:07;;;;;;;;;27.00;25.20;;;;;-149.35;100.00;64108.03;5031667;28;45329;-62
2023/05/23 01:23:55;;;;;;;;;31.60;27.80;;;;;-149.35;100.00;64108.03;5015257;28;45524;-62
2023/05/23 01:26:48;;;;;;;;;29.20;24.60;;;;;-149.35;100.00;64108.03;5016962;28;45549;-62
2023/05/23 01:29:16;;;;;;;;;27.20;25.20;;;;;-149.35;100.00;64108.03;5016555;28;45426;-61
2023/05/23 01:31:44;;;;;;;;;27.40;26.20;;;;;-149.35;100.00;64108.03;5015290;28;45292;-63
2023/05/23 01:34:09;;;;;;;;;28.00;25.40;;;;;-149.35;100.00;64108.03;5014729;28;45364;-61
2023/05/23 01:36:41;;;;;;;;;24.00;21.00;;;;;-149.35;100.00;64108.03;5017063;28;45167;-60
2023/05/23 01:39:06;;;;;;;;;26.40;22.40;;;;;-149.35;100.00;64108.03;5030730;28;45346;-61
2023/05/23 01:41:32;;;;;;;;;28.50;27.00;;;;;-149.35;100.00;64108.03;5016731;28;45415;-61
2023/05/23 01:43:58;;;;;;;;;30.00;26.50;;;;;-149.35;100.00;64108.03;5031569;28;45327;-61
2023/05/23 01:46:23;;;;;;;;;26.50;24.00;;;;;-149.35;100.00;64108.03;5048742;28;45346;-61
2023/05/23 01:48:48;;;;;;;;;25.00;23.25;;;;;-149.35;100.00;64108.03;5030996;28;45980;-60
2023/05/23 01:51:14;;;;;;;;;28.50;25.75;;;;;-149.35;100.00;64108.03;5016350;28;45323;-61
2023/05/23 01:53:40;;;;;;;;;26.25;23.00;;;;;-149.35;100.00;64108.03;5048480;28;45775;-61
2023/05/23 01:56:05;;;;;;;;;24.50;22.50;;;;;-149.35;100.00;64108.03;5016411;28;45481;-61
2023/05/23 01:58:31;;;;;;;;;26.75;24.00;;;;;-149.35;100.00;64108.03;5015786;28;46215;-60
2023/05/23 02:00:56;;;;;;;;;21.50;21.50;;;;;-149.35;100.00;64108.03;4987099;28;45399;-59
2023/05/23 02:03:22;;;;;;;;;24.50;23.75;;;;;-149.35;100.00;64108.03;5031501;28;45425;-60
2023/05/23 02:05:47;;;;;;;;;23.50;22.50;;;;;-149.35;100.00;64108.03;5016185;28;45402;-61
2023/05/23 02:08:13;;;;;;;;;25.25;20.75;;;;;-149.35;100.00;64108.03;5015872;28;46274;-60
2023/05/23 02:10:38;;;;;;;;;24.00;20.25;;;;;-149.35;100.00;64108.03;4998307;28;45454;-61
2023/05/23 02:13:04;;;;;;;;;27.00;22.50;;;;;-149.35;100.00;64108.03;5016205;28;45404;-62
2023/05/23 02:15:29;;;;;;;;;27.50;23.00;;;;;-149.35;100.00;64108.03;5031275;28;45367;-61
2023/05/23 02:17:55;;;;;;;;;21.75;20.25;;;;;-149.35;100.00;64108.03;5015540;28;45829;-61
2023/05/23 02:20:21;;;;;;;;;24.50;23.00;;;;;-149.35;100.00;64108.03;5047415;28;45381;-60
2023/05/23 02:22:46;;;;;;;;;23.25;21.25;;;;;-149.35;100.00;64108.03;5014726;28;45477;-61
2023/05/23 02:25:12;;;;;;;;;26.75;24.00;;;;;-149.35;100.00;64108.03;5016210;28;45345;-60
2023/05/23 02:27:37;;;;;;;;;22.75;22.50;;;;;-149.35;100.00;64108.03;5015669;28;47349;-61
2023/05/23 02:30:03;;;;;;;;;21.75;20.75;;;;;-149.35;100.00;64108.03;5015842;28;45193;-60
2023/05/23 02:32:29;;;;;;;;;27.25;26.00;;;;;-149.35;100.00;64108.03;5015415;28;45333;-61
2023/05/23 02:34:54;;;;;;;;;33.25;25.50;;;;;-149.35;100.00;64108.03;5014578;28;45561;-62
2023/05/23 02:37:19;;;;;;;;;25.25;23.50;;;;;-149.35;100.00;64108.03;5015986;28;45953;-61
2023/05/23 02:39:45;;;;;;;;;21.75;20.50;;;;;-149.35;100.00;64108.03;5015321;28;45270;-61
2023/05/23 02:42:10;;;;;;;;;31.25;26.75;;;;;-149.35;100.00;64108.03;5015987;28;45238;-61
2023/05/23 02:44:36;;;;;;;;;29.50;25.00;;;;;-149.35;100.00;64108.03;5015695;28;45428;-61
2023/05/23 02:47:01;;;;;;;;;30.25;27.00;;;;;-149.35;100.00;64108.03;5015585;28;46240;-61
2023/05/23 02:49:27;;;;;;;;;27.50;25.25;;;;;-149.35;100.00;64108.03;5013871;28;45686;-61
2023/05/23 02:51:52;;;;;;;;;33.25;29.75;;;;;-149.35;100.00;64108.03;5015728;28;45480;-61
2023/05/23 02:54:18;;;;;;;;;28.25;23.75;;;;;-149.35;100.00;64108.03;5015839;28;45563;-62
2023/05/23 02:56:44;;;;;;;;;26.00;26.00;;;;;-149.35;100.00;64108.03;5015420;28;46045;-62
2023/05/23 02:59:11;;;;;;;;;27.00;24.60;;;;;-149.35;100.00;64108.03;5015239;28;45458;-61
2023/05/23 03:01:36;;;;;;;;;26.20;25.20;;;;;-149.35;100.00;64108.03;5014311;28;45279;-61
2023/05/23 03:04:03;;;;;;;;;29.50;25.25;;;;;-149.35;100.00;64108.03;5015730;28;45474;-61
2023/05/23 03:06:32;;;;;;;;;36.40;28.60;;;;;-149.35;100.00;64108.03;5013793;28;47350;-61
2023/05/23 03:08:58;;;;;;;;;30.60;26.60;;;;;-149.35;100.00;64108.03;5013738;28;45410;-61
2023/05/23 03:11:24;;;;;;;;;32.75;29.75;;;;;-149.35;100.00;64108.03;4995227;28;45566;-61
2023/05/23 03:13:50;;;;;;;;;24.80;22.20;;;;;-149.35;100.00;64108.03;5003366;28;45519;-62
2023/05/23 03:16:15;;;;;;;;;21.75;21.75;;;;;-149.35;100.00;64108.03;5030067;28;48470;-62
2023/05/23 03:18:41;;;;;;;;;31.00;29.00;;;;;-149.35;100.00;64108.03;5015088;28;45338;-62
2023/05/23 03:21:07;;;;;;;;;32.25;30.00;;;;;-149.35;100.00;64108.03;5014772;28;45611;-62
2023/05/23 03:23:32;;;;;;;;;30.25;26.00;;;;;-149.35;100.00;64108.03;5015439;28;45232;-62
2023/05/23 03:25:58;;;;;;;;;26.00;24.00;;;;;-149.35;100.00;64108.03;5015059;28;45992;-61
2023/05/23 03:28:24;;;;;;;;;29.20;27.20;;;;;-149.35;100.00;64108.03;5015015;28;45257;-61
2023/05/23 03:30:49;;;;;;;;;28.50;28.50;;;;;-149.35;100.00;64108.03;5015244;28;45266;-61
2023/05/23 03:33:15;;;;;;;;;39.00;30.00;;;;;-149.35;100.00;64108.03;5015860;28;45129;-61
2023/05/23 03:35:40;;;;;;;;;31.50;27.00;;;;;-149.35;100.00;64108.03;5032465;28;45845;-60
2023/05/23 03:38:06;;;;;;;;;35.25;28.50;;;;;-149.35;100.00;64108.03;5034389;28;45367;-60
2023/05/23 03:40:31;;;;;;;;;34.75;31.00;;;;;-149.35;100.00;64108.03;5034639;28;45357;-61
2023/05/23 03:43:02;;;;;;;;;30.75;27.50;;;;;-149.35;100.00;64108.03;5034877;28;45426;-62
2023/05/23 03:45:27;;;;;;;;;30.60;28.20;;;;;-149.35;100.00;64108.03;5033811;28;45391;-61
2023/05/23 03:47:53;;;;;;;;;29.50;27.00;;;;;-149.35;100.00;64108.03;5034340;28;45459;-61
2023/05/23 03:50:18;;;;;;;;;36.75;31.00;;;;;-149.35;100.00;64108.03;5034352;28;45290;-61
2023/05/23 03:52:44;;;;;;;;;36.75;30.75;;;;;-149.35;100.00;64108.03;5034563;28;45794;-60
2023/05/23 03:55:10;;;;;;;;;32.75;30.50;;;;;-149.35;100.00;64108.03;5034043;28;45316;-62
2023/05/23 03:57:35;;;;;;;;;39.40;32.20;;;;;-149.35;100.00;64108.03;5034021;28;45438;-60
2023/05/23 04:00:04;;;;;;;;;33.75;30.25;;;;;-149.35;100.00;64108.03;5015821;28;45335;-61
2023/05/23 04:02:30;;;;;;;;;30.20;28.40;;;;;-149.35;100.00;64108.03;5034476;28;45298;-62
2023/05/23 04:04:55;;;;;;;;;32.50;28.00;;;;;-149.35;100.00;64108.03;4979137;28;46326;-62
2023/05/23 04:07:21;;;;;;;;;29.50;28.25;;;;;-149.35;100.00;64108.03;4996395;28;45302;-62
2023/05/23 04:09:47;;;;;;;;;26.75;26.75;;;;;-149.35;100.00;64108.03;5012693;28;45375;-61
2023/05/23 04:12:12;;;;;;;;;35.25;31.00;;;;;-149.35;100.00;64108.03;5001154;28;45404;-62
2023/05/23 04:14:38;;;;;;;;;29.75;26.75;;;;;-149.35;100.00;64108.03;5031043;28;45816;-61
2023/05/23 04:17:04;;;;;;;;;31.00;27.50;;;;;-149.35;100.00;64108.03;5032888;28;45188;-62
2023/05/23 04:19:30;;;;;;;;;26.40;26.20;;;;;-149.35;100.00;64108.03;5015026;28;45201;-61
2023/05/23 04:21:55;;;;;;;;;34.75;29.50;;;;;-149.35;100.00;64108.03;5033981;28;45540;-61
2023/05/23 04:24:21;;;;;;;;;32.50;30.75;;;;;-149.35;100.00;64108.03;5032258;28;45562;-61
2023/05/23 04:26:46;;;;;;;;;32.00;30.75;;;;;-149.35;100.00;64108.03;5031985;28;45350;-60
2023/05/23 04:29:12;;;;;;;;;26.50;22.75;;;;;-149.35;100.00;64108.03;5033788;28;45317;-61
2023/05/23 04:31:38;;;;;;;;;28.25;26.75;;;;;-149.35;100.00;64108.03;5034341;28;45218;-62
2023/05/23 04:34:03;;;;;;;;;27.75;26.50;;;;;-149.35;100.00;64108.03;5015602;28;48434;-59
2023/05/23 04:36:29;;;;;;;;;28.25;26.50;;;;;-149.35;100.00;64108.03;5033323;28;45371;-62
2023/05/23 04:38:54;;;;;;;;;31.50;28.75;;;;;-149.35;100.00;64108.03;5033718;28;45436;-61
2023/05/23 04:41:22;;;;;;;;;27.75;26.75;;;;;-149.35;100.00;64108.03;5033866;28;45508;-61
2023/05/23 04:43:52;;;;;;;;;34.20;28.20;;;;;-149.35;100.00;64108.03;5033158;28;45938;-60
2023/05/23 04:46:21;;;;;;;;;25.00;23.20;;;;;-149.35;100.00;64108.03;5035725;28;45447;-61
2023/05/23 04:48:47;;;;;;;;;32.20;26.40;;;;;-149.35;100.00;64108.03;5037136;28;45299;-62
2023/05/23 04:51:12;;;;;;;;;25.20;23.40;;;;;-149.35;100.00;64108.03;5037754;28;45521;-61
2023/05/23 04:53:39;;;;;;;;;28.25;23.25;;;;;-149.35;100.00;64108.03;5035802;28;46634;-63
2023/05/23 04:56:07;;;;;;;;;26.80;21.80;;;;;-149.35;100.00;64108.03;5037072;28;45141;-62
2023/05/23 04:58:33;;;;;;;;;26.00;25.40;;;;;-149.35;100.00;64108.03;5019565;28;45959;-62
2023/05/23 05:00:58;;;;;;;;;20.00;16.75;;;;;-149.35;100.00;64108.03;5035777;28;45518;-62
2023/05/23 05:03:25;;;;;;;;;23.00;20.50;;;;;-149.35;100.00;64108.03;5035499;28;46097;-61
2023/05/23 05:05:50;;;;;;;;;24.20;21.60;;;;;-149.35;100.00;64108.03;5036794;28;45460;-60
2023/05/23 05:08:18;;;;;;;;;27.75;24.00;;;;;-149.35;100.00;64108.03;5037301;28;45461;-62
2023/05/23 05:10:44;;;;;;;;;23.60;22.60;;;;;-149.35;100.00;64108.03;5036875;28;45562;-62
2023/05/23 05:13:09;;;;;;;;;22.50;22.00;;;;;-149.35;100.00;64108.03;5036919;28;46212;-62
2023/05/23 05:15:35;;;;;;;;;22.50;20.75;;;;;-149.35;100.00;64108.03;5036665;28;45377;-62
2023/05/23 05:18:00;;;;;;;;;21.25;16.25;;;;;-149.35;100.00;64108.03;5036691;28;45457;-62
2023/05/23 05:20:26;;;;;;;;;25.00;21.00;;;;;-149.35;100.00;64108.03;5036550;28;45432;-60
2023/05/23 05:22:58;;;;;;;;;22.75;18.25;;;;;-149.35;100.00;64108.03;5034830;28;45416;-62
2023/05/23 05:25:26;;;;;;;;;21.00;18.20;;;;;-149.35;100.00;64108.03;5036192;28;45346;-61
2023/05/23 05:27:51;;;;;;;;;19.00;17.80;;;;;-149.35;100.00;64108.03;5018557;28;45318;-60
2023/05/23 05:30:17;;;;;;;;;22.00;19.00;;;;;-149.35;100.00;64108.03;5035301;28;45639;-60
2023/05/23 05:32:44;;;;;;;;;21.00;16.75;;;;;-149.35;100.00;64108.03;5036277;28;45447;-61
2023/05/23 05:35:12;;;;;;;;;19.60;18.00;;;;;-149.35;100.00;64108.03;5036242;28;45412;-63
2023/05/23 05:37:38;;;;;;;;;22.60;20.20;;;;;-149.35;100.00;64108.03;5036882;28;45351;-61
2023/05/23 05:40:06;;;;;;;;;20.50;17.00;;;;;-149.35;100.00;64108.03;5036344;28;45287;-62
2023/05/23 05:42:31;;;;;;;;;19.80;18.80;;;;;-149.35;100.00;64108.03;5035273;28;47307;-62
2023/05/23 05:44:57;;;;;;;;;15.75;14.75;;;;;-149.35;100.00;64108.03;5036385;28;45413;-62
2023/05/23 05:47:22;;;;;;;;;22.25;19.25;;;;;-149.35;100.00;64108.03;5036596;28;45450;-60
2023/05/23 05:49:48;;;;;;;;;14.25;14.25;;;;;-149.35;100.00;64108.03;5036541;28;45475;-63
2023/05/23 05:52:13;;;;;;;;;19.50;19.00;;;;;-149.35;100.00;64108.03;5018230;28;48329;-63
2023/05/23 05:54:39;;;;;;;;;21.25;17.75;;;;;-149.35;100.00;64108.03;5036266;28;45472;-62
2023/05/23 05:57:04;;;;;;;;;15.25;14.50;;;;;-149.35;100.00;64108.03;5035130;28;45469;-62
2023/05/23 05:59:30;;;;;;;;;23.25;20.00;;;;;-149.35;100.00;64108.03;5036265;28;45575;-62
2023/05/23 06:01:55;;;;;;;;;22.25;19.50;;;;;-149.35;100.00;64108.03;5036277;28;45586;-62
2023/05/23 06:04:21;;;;;;;;;22.75;17.00;;;;;-149.35;100.00;64108.03;5036167;28;45334;-62
2023/05/23 06:06:46;;;;;;;;;16.00;14.25;;;;;-149.35;100.00;64108.03;5007365;28;45347;-62
2023/05/23 06:09:12;;;;;;;;;23.25;16.50;;;;;-149.35;100.00;64108.03;5033889;28;45528;-61
2023/05/23 06:11:39;;;;;;;;;17.75;16.25;;;;;-149.35;100.00;64108.03;5018522;28;45385;-62
2023/05/23 06:14:05;;;;;;;;;15.20;15.20;;;;;-149.35;100.00;64108.03;5035693;28;45328;-62
2023/05/23 06:16:31;;;;;;;;;18.00;14.80;;;;;-149.35;100.00;64108.03;5035838;28;45297;-62
2023/05/23 06:18:56;;;;;;;;;22.75;18.00;;;;;-149.35;100.00;64108.03;5036165;28;45331;-62
2023/05/23 06:21:22;;;;;;;;;18.75;16.75;;;;;-149.35;100.00;64108.03;5035534;28;46024;-62
2023/05/23 06:23:47;;;;;;;;;15.50;14.25;;;;;-149.35;100.00;64108.03;5035769;28;45473;-62
2023/05/23 06:26:13;;;;;;;;;21.25;16.25;;;;;-149.35;100.00;64108.03;5035657;28;45378;-61
2023/05/23 06:28:38;;;;;;;;;19.75;15.50;;;;;-149.35;100.00;64108.03;5035974;28;45261;-61
2023/05/23 06:31:04;;;;;;;;;17.00;16.50;;;;;-149.35;100.00;64108.03;5033757;28;46672;-62
2023/05/23 06:33:30;;;;;;;;;23.00;17.25;;;;;-149.35;100.00;64108.03;5035412;28;45342;-62
2023/05/23 06:35:56;;;;;;;;;20.00;17.80;;;;;-149.35;100.00;64108.03;5035533;28;45373;-59
2023/05/23 06:38:21;;;;;;;;;15.75;15.75;;;;;-149.35;100.00;64108.03;5034508;28;45366;-62
2023/05/23 06:40:47;;;;;;;;;20.75;17.00;;;;;-149.35;100.00;64108.03;5035038;28;46263;-61
2023/05/23 06:43:12;;;;;;;;;14.00;14.00;;;;;-149.35;100.00;64108.03;5035683;28;45337;-62
2023/05/23 06:45:38;;;;;;;;;16.75;16.25;;;;;-149.35;100.00;64108.03;5035328;28;45641;-61
2023/05/23 06:48:03;;;;;;;;;15.50;14.50;;;;;-149.35;100.00;64108.03;5035136;28;45630;-61
2023/05/23 06:50:29;;;;;;;;;19.00;17.00;;;;;-149.35;100.00;64108.03;5033565;28;47860;-61
2023/05/23 06:52:55;;;;;;;;;18.25;16.25;;;;;-149.35;100.00;64108.03;5017446;28;45356;-60
2023/05/23 06:55:21;;;;;;;;;22.60;20.60;;;;;-149.35;100.00;64108.03;5033898;28;45621;-62
2023/05/23 06:57:49;;;;;;;;;20.40;20.00;;;;;-149.35;100.00;64108.03;5034871;28;45534;-61
2023/05/23 07:00:15;;;;;;;;;16.40;15.40;;;;;-149.35;100.00;64108.03;5034664;28;46141;-63
2023/05/23 07:02:41;;;;;;;;;20.40;17.40;;;;;-149.35;100.00;64108.03;5035108;28;45336;-63
2023/05/23 07:05:07;;;;;;;;;21.00;18.40;;;;;-149.35;100.00;64108.03;5034986;28;45291;-62
2023/05/23 07:07:32;;;;;;;;;23.25;22.00;;;;;-149.35;100.00;64108.03;5035611;28;45379;-62
2023/05/23 07:09:58;;;;;;;;;19.75;18.25;;;;;-149.35;100.00;64108.03;5034857;28;45516;-62
2023/05/23 07:12:23;;;;;;;;;16.50;15.25;;;;;-149.35;100.00;64108.03;5034641;28;45301;-62
2023/05/23 07:14:48;;;;;;;;;24.25;20.75;;;;;-149.35;100.00;64108.03;5035016;28;45461;-63
2023/05/23 07:17:14;;;;;;;;;22.75;20.75;;;;;-149.35;100.00;64108.03;5035151;28;45351;-61
2023/05/23 07:19:40;;;;;;;;;18.50;18.50;;;;;-149.35;100.00;64108.03;5034722;28;46023;-63
2023/05/23 07:22:05;;;;;;;;;23.75;22.75;;;;;-149.35;100.00;64108.03;5016261;28;45450;-62
2023/05/23 07:24:30;;;;;;;;;23.75;20.50;;;;;-149.35;100.00;64108.03;5016710;28;45381;-61
2023/05/23 07:26:56;;;;;;;;;20.25;19.50;;;;;-149.35;100.00;64108.03;5002335;28;45644;-61
2023/05/23 07:29:21;;;;;;;;;7.00;5.00;;;;;-149.35;100.00;64108.03;5034091;28;46073;-61
2023/05/23 07:31:47;;;;;;;;;25.25;20.25;;;;;-149.35;100.00;64108.03;5034223;28;45974;-60
2023/05/23 07:34:12;;;;;;;;;21.50;18.25;;;;;-149.35;100.00;64108.03;5034767;28;45393;-61
2023/05/23 07:36:39;;;;;;;;;26.75;25.25;;;;;-149.35;100.00;64108.03;5035061;28;45384;-61
2023/05/23 07:39:05;;;;;;;;;24.20;21.20;;;;;-149.35;100.00;64108.03;5034499;28;45889;-61
2023/05/23 07:41:48;;;;;;;;;22.40;21.40;;;;;;;;5091365;27;45368;-60
2023/05/23 07:44:13;;;;;;;;;25.00;22.50;;;;;;;;5092020;27;45360;-60
2023/05/23 07:46:38;;;;;;;;;24.25;21.50;;;;;;;;5091523;27;45369;-61
2023/05/23 07:49:03;;;;;;;;;24.25;23.75;;;;;;;;5090056;27;45891;-61
2023/05/23 07:51:29;;;;;;;;;29.25;23.00;;;;;;;;5091357;27;45361;-61
2023/05/23 07:53:55;;;;;;;;;35.50;22.25;;;;;;;;5091248;27;45328;-60
2023/05/23 07:56:20;;;;;;;;;24.50;21.75;;;;;;;;5091496;27;45309;-62
2023/05/23 07:58:46;;;;;;;;;23.50;22.25;;;;;;;;5091160;27;45370;-61
2023/05/23 08:01:11;;;;;;;;;20.75;20.50;;;;;;;;5091180;27;46276;-61
2023/05/23 08:03:36;;;;;;;;;22.75;20.50;;;;;;;;5072751;27;45233;-61
2023/05/23 08:06:02;;;;;;;;;25.00;22.25;;;;;;;;5091046;27;45233;-62
2023/05/23 08:08:27;;;;;;;;;21.50;20.25;;;;;;;;5091829;27;45432;-62
2023/05/23 08:10:52;;;;;;;;;25.00;21.50;;;;;;;;5091004;27;45390;-62
2023/05/23 08:13:18;;;;;;;;;20.00;19.75;;;;;;;;5091351;27;45426;-62
2023/05/23 08:15:43;;;;;;;;;24.25;19.75;;;;;;;;5090934;27;45243;-62
2023/05/23 08:18:08;;;;;;;;;20.00;18.50;;;;;;;;5091071;27;45479;-61
2023/05/23 08:20:33;;;;;;;;;18.75;16.50;;;;;;;;5090928;27;45741;-61
2023/05/23 08:22:59;;;;;;;;;24.25;22.00;;;;;;;;5090953;27;45370;-60
2023/05/23 08:25:25;;;;;;;;;23.75;21.50;;;;;;;;5090551;27;45233;-65
2023/05/23 08:27:50;;;;;;;;;21.25;19.75;;;;;;;;5085995;27;45580;-61
2023/05/23 08:30:15;;;;;;;;;18.50;17.25;;;;;;;;5099656;27;46849;-60
2023/05/23 08:32:41;;;;;;;;;20.75;19.75;;;;;;;;5111946;27;45238;-58
2023/05/23 08:35:06;;;;;;;;;24.75;21.50;;;;;;;;5111751;27;45372;-59
2023/05/23 08:37:32;;;;;;;;;20.75;17.75;;;;;;;;5112047;27;45340;-60
2023/05/23 08:39:57;;;;;;;;;19.50;16.75;;;;;;;;5116444;27;46499;-60
2023/05/23 08:42:22;;;;;;;;;13.25;12.00;;;;;;;;5131728;27;45226;-60
2023/05/23 08:44:47;;;;;;;;;20.00;16.75;;;;;;;;5132211;27;45257;-60
2023/05/23 08:47:13;;;;;;;;;21.50;17.50;;;;;;;;5132228;27;45284;-61
2023/05/23 08:49:38;;;;;;;;;22.00;18.00;;;;;;;;5132265;27;45357;-59
2023/05/23 08:52:03;;;;;;;;;17.25;16.75;;;;;;;;5105302;27;45110;-59
2023/05/23 08:54:29;;;;;;;;;17.25;16.75;;;;;;;;5118186;27;45202;-59
2023/05/23 08:56:55;;;;;;;;;22.75;18.50;;;;;;;;5093300;27;45654;-57
2023/05/23 08:59:22;;;;;;;;;23.60;20.40;;;;;;;;5076530;27;46764;-57
2023/05/23 09:01:47;;;;;;;;;24.80;20.60;;;;;;;;5082603;27;45581;-60
2023/05/23 09:04:12;;;;;;;;;19.25;19.25;;;;;;;;5076626;27;45365;-59
2023/05/23 09:06:38;;;;;;;;;16.25;15.75;;;;;;;;5094945;27;45727;-58
2023/05/23 09:09:03;;;;;;;;;21.00;16.75;;;;;;;;5062477;27;47665;-59
2023/05/23 09:11:29;;;;;;;;;23.00;20.50;;;;;;;;5092898;27;45393;-59
2023/05/23 09:13:54;;;;;;;;;19.25;18.25;;;;;;;;5077599;27;45351;-59
2023/05/23 09:16:20;;;;;;;;;23.75;19.50;;;;;;;;5095749;27;45327;-60
2023/05/23 09:18:46;;;;;;;;;22.00;20.50;;;;;;;;5095304;27;45495;-60
2023/05/23 09:21:12;;;;;;;;;27.00;20.75;;;;;;;;5076932;27;45477;-59
2023/05/23 09:23:40;;;;;;;;;25.25;24.00;;;;;;;;5093877;27;45399;-59
2023/05/23 09:26:09;;;;;;;;;21.60;18.40;;;;;;;;5095764;27;45308;-58
2023/05/23 09:28:34;;;;;;;;;23.20;22.00;;;;;;;;5061873;27;47202;-57
2023/05/23 09:31:00;;;;;;;;;23.50;22.25;;;;;;;;5077256;27;45507;-59
2023/05/23 09:33:35;;;;;;;;;23.00;22.25;;;;;;;;5095781;27;45478;-59
2023/05/23 09:36:02;;;;;;;;;27.00;23.80;;;;;;;;5093977;27;45771;-60
2023/05/23 09:38:27;;;;;;;;;24.20;19.00;;;;;;;;5095533;27;46582;-61
2023/05/23 09:40:54;;;;;;;;;25.75;22.50;;;;;;;;5081303;27;45456;-59
2023/05/23 09:43:20;;;;;;;;;30.00;23.60;;;;;;;;5077221;27;45347;-59
2023/05/23 09:45:45;;;;;;;;;23.75;23.00;;;;;;;;5077498;27;45418;-59
2023/05/23 09:48:11;;;;;;;;;22.50;19.75;;;;;;;;5074615;27;46951;-57
2023/05/23 09:50:36;;;;;;;;;24.00;23.00;;;;;;;;5095319;27;45277;-60
2023/05/23 09:53:02;;;;;;;;;18.50;14.00;;;;;;;;5094732;27;45321;-59
2023/05/23 09:55:27;;;;;;;;;23.50;21.75;;;;;;;;5095501;27;45358;-58
2023/05/23 09:57:56;;;;;;;;;24.00;21.00;;;;;;;;5066859;27;46295;-60
2023/05/23 10:00:22;;;;;;;;;24.80;23.00;;;;;;;;5092962;27;45551;-59
2023/05/23 10:02:55;;;;;;;;;22.60;20.00;;;;;;;;5093576;27;45444;-58
2023/05/23 10:05:33;;;;;;;;;21.60;18.80;;;;;;;;5095043;27;45922;-60
2023/05/23 10:07:59;;;;;;;;;32.80;29.80;;;;;;;;5094682;27;46514;-60
2023/05/23 10:10:26;;;;;;;;;29.60;26.40;;;;;;;;5094513;27;45372;-60
2023/05/23 10:12:51;;;;;;;;;23.60;22.80;;;;;;;;5082687;27;45495;-62
2023/05/23 10:15:17;;;;;;;;;19.75;19.00;;;;;;;;5068221;27;45397;-60
2023/05/23 10:17:50;;;;;;;;;18.75;15.25;;;;;;;;5071794;28;46171;-60
2023/05/23 10:20:16;;;;;;;;;18.40;17.00;;;;;;;;5054479;28;45429;-59
2023/05/23 10:22:41;;;;;;;;;17.25;15.25;;;;;;;;5074681;27;45371;-60
2023/05/23 10:25:09;;;;;;;;;21.25;18.00;;;;;;;;5091317;27;45377;-62
2023/05/23 10:27:34;;;;;;;;;21.20;18.60;;;;;;;;5065876;28;46010;-61
2023/05/23 10:29:59;;;;;;;;;19.50;18.75;;;;;;;;5073313;27;45292;-64
2023/05/23 10:32:25;;;;;;;;;18.50;17.50;;;;;;;;5092581;27;45410;-56
2023/05/23 10:35:02;;;;;;;;;15.40;15.40;;;;;;;;5058891;27;45349;-57
2023/05/23 10:37:46;;;;;;;;;22.60;17.00;;;;;;;;5057034;27;48777;-59
2023/05/23 10:40:14;;;;;;;;;18.60;16.40;;;;;;;;5093226;27;45525;-60
2023/05/23 10:42:43;;;;;;;;;21.00;18.00;;;;;;;;5094357;27;45312;-58
2023/05/23 10:45:14;;;;;;;;;21.80;20.80;;;;;;;;5076567;27;45588;-61
2023/05/23 10:47:40;;;;;;;;;20.00;18.80;;;;;;;;5094642;27;45351;-60
2023/05/23 10:50:05;;;;;;;;;20.00;19.00;;;;;;;;5092535;27;45362;-61
2023/05/23 10:52:37;;;;;;;;;24.00;20.50;;;;;;;;5075791;27;45299;-62
2023/05/23 10:55:03;;;;;;;;;26.00;21.60;;;;;;;;5094622;27;45337;-64
2023/05/23 10:57:28;;;;;;;;;23.75;20.25;;;;;;;;5064472;27;46412;-64
2023/05/23 10:59:53;;;;;;;;;22.25;20.75;;;;;;;;5094452;27;45659;-60
2023/05/23 11:02:24;;;;;;;;;20.75;19.50;;;;;;;;5078177;27;45466;-60
2023/05/23 11:05:09;;;;;;;;;25.60;21.00;;;;;;;;5094766;27;45394;-61
2023/05/23 11:07:34;;;;;;;;;19.60;19.60;;;;;;;;5075447;27;48585;-61
2023/05/23 11:10:03;;;;;;;;;22.25;19.25;;;;;;;;5094439;27;45399;-64
2023/05/23 11:12:39;;;;;;;;;23.80;23.60;;;;;;;;5075592;27;45275;-62
2023/05/23 11:15:16;;;;;;;;;22.60;21.20;;;;;;;;5091922;27;45392;-59
2023/05/23 11:17:54;;;;;;;;;26.80;22.40;;;;;;;;5072577;27;46060;-62
2023/05/23 11:20:27;;;;;;;;;22.80;19.40;;;;;;;;5085385;27;45415;-61
2023/05/23 11:22:59;;;;;;;;;23.00;20.40;;;;;;;;5092776;27;45327;-60
2023/05/23 11:25:44;;;;;;;;;19.60;19.60;;;;;;;;5092227;27;45621;-59
2023/05/23 11:28:09;;;;;;;;;22.40;21.20;;;;;;;;5073491;28;45511;-60
2023/05/23 11:30:38;;;;;;;;;23.50;22.50;;;;;;;;5073391;28;45380;-60
2023/05/23 11:33:08;;;;;;;;;20.60;20.40;;;;;;;;5054926;28;45487;-58
2023/05/23 11:35:34;;;;;;;;;22.20;20.00;;;;;;;;5055328;28;45512;-57
2023/05/23 11:37:59;;;;;;;;;21.20;21.20;;;;;;;;5077216;27;45783;-57
2023/05/23 11:40:29;;;;;;;;;21.75;21.00;;;;;;;;5075213;27;45324;-58
2023/05/23 11:42:54;;;;;;;;;26.60;23.00;;;;;;;;5093588;27;45540;-57
2023/05/23 11:45:20;;;;;;;;;21.25;21.25;;;;;;;;5094186;27;45827;-61
2023/05/23 11:47:45;;;;;;;;;25.00;24.50;;;;;;;;5093605;27;46603;-57
2023/05/23 11:50:10;;;;;;;;;23.25;22.00;;;;;;;;5090428;27;45432;-58
2023/05/23 11:52:35;;;;;;;;;20.75;18.00;;;;;;;;5083030;27;45411;-62